Nearby METAR Reports

 

KSFO - San Francisco, California, USA
Distance from station: NNW 8km
Updated: Tue, 19-Nov-2019 2:56am PST
Mostly cloudy
Mostly cloudy
 Wind from W
Wind: W 20 mph , 31 km/h
Temperature: 57°F , 14°C
Dew Point: 54°F , 12°C
Humidity: 88%
Barometer: 29.81 inHg , 1009.5 hPa
Clouds: Mostly cloudy
Visibility: 10 miles , 16 km
Cloud details: Mostly cloudy 600 ft
2019/11/19 10:56 KSFO 191056Z 28017KT 10SM BKN006 14/12 A2981 RMK AO2 PK WND 27026/1015 SLP094 T01440122
KSQL - San Carlos Airpo, California, USA
Distance from station: ESE 8km
Updated: Tue, 19-Nov-2019 3:00am PST
Clear
Clear
 Wind from calm
Wind: Calm
Temperature: 54°F , 12°C
Dew Point: 50°F , 10°C
Humidity: 88%
Barometer: 29.83 inHg , 1010.2 hPa
Clouds: Clear
Visibility: 10 miles , 16 km
2019/11/19 11:00 KSQL 191100Z AUTO 00000KT 10SM CLR 12/10 A2983 RMK AO2
 
KHAF - Half Moon Bay, California, USA
Distance from station: WSW 15km
Updated: Tue, 19-Nov-2019 3:00am PST
Overcast
Overcast
 Wind from NW
Wind: NW 17 mph , 28 km/h, Gust: 21 mph , 33 km/h
Temperature: 57°F , 14°C
Dew Point: 55°F , 13°C
Humidity: 94%
Barometer: 29.84 inHg , 1010.5 hPa
Clouds: Overcast
Visibility: 7 miles , 11 km
Cloud details: Overcast 400 ft
2019/11/19 11:00 KHAF 191100Z AUTO 32015G18KT 7SM OVC004 14/13 A2984 RMK AO2
KOAK - Oakland, California, USA
Distance from station: NNE 21km
Updated: Tue, 19-Nov-2019 2:53am PST
Mostly cloudy
Mostly cloudy
 Wind from calm
Wind: Calm
Temperature: 55°F , 13°C
Dew Point: 52°F , 11°C
Humidity: 88%
Barometer: 29.82 inHg , 1009.8 hPa
Clouds: Mostly cloudy
Visibility: 10 miles , 16 km
Cloud details: Mostly cloudy 800 ft
Mostly cloudy 18000 ft
2019/11/19 10:53 KOAK 191053Z 00000KT 10SM BKN008 BKN180 13/11 A2982 RMK AO2 SLP098 T01280106
 
KPAO - Palo Alto, California, USA
Distance from station: ESE 21km
Updated: Mon, 18-Nov-2019 8:47pm PST
NOT Current
Clear
Clear
 Wind from N
Wind: N 5 mph , 7 km/h
Temperature: 55°F , 13°C
Dew Point: 54°F , 12°C
Humidity: 94%
Barometer: 29.86 inHg , 1011.2 hPa
Clouds: Clear
Visibility: 10 miles , 16 km
2019/11/19 04:47 KPAO 190447Z 36004KT 10SM SKC 13/12 A2986 RMK LAST
KHWD - Hayward, California, USA
Distance from station: NE 23km
Updated: Tue, 19-Nov-2019 2:54am PST
Clear
Clear
 Wind from ESE
Wind: ESE 5 mph , 7 km/h
Temperature: 54°F , 12°C
Dew Point: 52°F , 11°C
Humidity: 94%
Barometer: 29.82 inHg , 1009.8 hPa
Clouds: Clear
Visibility: 10 miles , 16 km
2019/11/19 10:54 KHWD 191054Z 11004KT 10SM CLR 12/11 A2982 RMK AO2 SLP105 T01220111
 
KNUQ - Moffett Nas/Mtn, California, USA
Distance from station: ESE 30km
Updated: Tue, 19-Nov-2019 2:56am PST

 
Barometer: 29.83 inHg , 1010.2 hPa
2019/11/19 10:56 KNUQ 191056Z A2983 RMK AO2 SLP105 PWINO $
KSJC - San Jose, California, USA
Distance from station: ESE 42km
Updated: Tue, 19-Nov-2019 2:53am PST
Clear
Clear
 Wind from calm
Wind: Calm
Temperature: 54°F , 12°C
Dew Point: 52°F , 11°C
Humidity: 94%
Barometer: 29.83 inHg , 1010.2 hPa
Clouds: Clear
Visibility: 10 miles , 16 km
2019/11/19 10:53 KSJC 191053Z AUTO 00000KT 10SM CLR 12/11 A2983 RMK AO2 SLP099 T01170106 $
 
KLVK - Livermore, California, USA
Distance from station: ENE 49km
Updated: Tue, 19-Nov-2019 2:53am PST
Haze, Clear
Haze, Clear
 Wind from ENE
Wind: ENE 5 mph , 7 km/h
Temperature: 48°F , 9°C
Wind Chill: 46°F , 8°C
Dew Point: 43°F , 6°C
Humidity: 82%
Barometer: 29.80 inHg , 1009.1 hPa
Summary: Haze
Clouds: Clear
Visibility: 6 miles , 10 km
2019/11/19 10:53 KLVK 191053Z AUTO 07004KT 6SM HZ CLR 09/06 A2980 RMK AO2 SLP088 T00940061
KRHV - San Jose/Reid, California, USA
Distance from station: ESE 53km
Updated: Mon, 18-Nov-2019 8:50pm PST
NOT Current
Clear
Clear
 Wind from calm
Wind: Calm
Temperature: 57°F , 14°C
Dew Point: 48°F , 9°C
Humidity: 72%
Barometer: 29.87 inHg , 1011.5 hPa
Clouds: Clear
Visibility: 10 miles , 16 km
2019/11/19 04:50 KRHV 190450Z 00000KT 10SM SKC 14/09 A2987
 
KCCR - Concord, California, USA
Distance from station: NNE 56km
Updated: Tue, 19-Nov-2019 2:53am PST
Clear
Clear
 Wind from calm
Wind: Calm
Temperature: 52°F , 11°C
Dew Point: 45°F , 7°C
Humidity: 77%
Barometer: 29.79 inHg , 1008.8 hPa
Clouds: Clear
Visibility: 10 miles , 16 km
2019/11/19 10:53 KCCR 191053Z AUTO 00000KT 10SM CLR 11/07 A2979 RMK AO2 SLP074 T01110072
KDVO - Novato/Gnoss Fld, California, USA
Distance from station: NNW 70km
Updated: Tue, 19-Nov-2019 2:55am PST
Clear
Clear
 Wind from calm
Wind: Calm
Temperature: 57°F , 14°C
Dew Point: 54°F , 12°C
Humidity: 88%
Barometer: 29.81 inHg , 1009.5 hPa
Clouds: Clear
Visibility: 10 miles , 16 km
2019/11/19 10:55 KDVO 191055Z AUTO 00000KT 10SM CLR 14/12 A2981 RMK AO2
 
KAPC - Napa, California, USA
Distance from station: N 73km
Updated: Tue, 19-Nov-2019 2:54am PST
Clear
Clear
 Wind from calm
Wind: Calm
Temperature: 46°F , 8°C
Dew Point: 45°F , 7°C
Humidity: 93%
Barometer: 29.79 inHg , 1008.8 hPa
Clouds: Clear
Visibility: 10 miles , 16 km
2019/11/19 10:54 KAPC 191054Z AUTO 00000KT 10SM CLR 08/07 A2979 RMK AO2 SLP079 T00780072